General Aviation Weather

Text Reports

Enter one or more of the following location identifiers separated by a space:

Zip Code, Four-Character ICAO or Three-Character IATA airport codes.

METAR - Aviation Routine Weather Report
KBML - Berlin, New Hampshire
Updated at 5:52 PM GMT on August 02, 2015 (1:52 PM EDT):
METAR KBML 021752Z AUTO 21013G18KT 10SM SCT055 26/12 A2986 RMK AO2 SLP109 T02610117 10261 20133 57008
TAF - Terminal Area Forecast
KBML - Berlin, New Hampshire
Updated at 5:52 PM GMT on August 02, 2015 (1:52 PM EDT):
No TAF is currently available for this location.
Decoded:
No decoded TAF is available.
PIREP - Pilot Weather Report
KBML - Berlin, New Hampshire
Updated at 5:52 PM GMT on August 02, 2015 (1:52 PM EDT):
No PIREP is currently available for this location.
AIRMET - Airmens Meteorological Information
KBML - Berlin, New Hampshire
Updated at 5:52 PM GMT on August 02, 2015 (1:52 PM EDT):
No AIRMET is currently available for this location.
SIGMET - Significant Meteorological Information
KBML - Berlin, New Hampshire
Updated at 5:52 PM GMT on August 02, 2015 (1:52 PM EDT):
No SIGMET is currently available for this location.
NOTAM - Notice to Airmen
KBML - Berlin, New Hampshire
Updated at 5:52 PM GMT on August 02, 2015 (1:52 PM EDT):
No NOTAM is currently available for this location.
Forecast Area
KBML - Berlin, New Hampshire
Updated at 5:52 PM GMT on August 02, 2015 (1:52 PM EDT):
No NOTAM is currently available for this location.
Aviation Weather Maps